Sylvania, Ohio
Current Conditions -  °F | °C
As of 10:54 AM on Sunday 21 Dec 2014 (Local Time) from KDUH Reporting Station
Clear Clear  
Wind Chill: 34°   Ceiling: Unl
Heat Index: 34°   Visibility: 7mi
Dew Point: 27°   Wind: 3mph
Humidity: 75%   Direction: 160°SSE
Pressure: 30.32"   Gusts: NA
Location:  41.72°N, 83.7°W
Report Text: KDUH 211554Z AUTO 16003KT 7SM CLR 01/M03 A3032 RMK AO2
Loading
Personal Weather Stations






























Interactive Weather Map New forecast layout! Learn more

10-Day Weather Forecast

Advertisements
Track Severe Weather on mobile